^^
Station Historical Data
Daily Summary for February 23, 2018 Units:  Both    English   Metric
« Previous Day
Next Day »
Daily Weekly Monthly Yearly Custom
  High: Low: Average:
Temperature: TemperatureF °F /  -17.8 °C 64.2 °F /  17.9 °C 75.2 °F /  24 °C
Dew Point: DewpointF °F /  -17.8 °C 44.6 °F /  7 °C 52.8 °F /  11.6 °C
Humidity: Humidity% 22% 48%
Wind Speed: WindSpeedMPHmph /  0km/h - 1.4mph /  2.3km/h
Wind Gust: WindSpeedGustMPHmph /  0km/h - -
Wind- - South
Pressure: PressureIn in /  0 hPa 29.47 in /  997.9 hPa -
Precipitation: 0.00 in /  0 mm    
Historical Graphs
 
 
Tabular Data for February 23, 2018
Time Temperature Dew Point Pressure Wind Wind Speed Wind Gust Humidity Rainfall Rate (Hourly) solar Conditions
TemperatureF °F /  -17.8 °C DewpointF °F /  -17.8 °C PressureInin /  0hPa Calm     Humidity% HourlyPrecipInin /  0mm SolarRadiationWatts/m^2 W/m2 Conditions
00:01 72.7 °F /  22.6 °C 51.3 °F /  10.7 °C 29.56in /  1000.9hPa Calm   7.0mph /  11.3km/h 47% 0.00in /  0mm 0.0 W/m2
00:06 72.9 °F /  22.7 °C 51.4 °F /  10.8 °C 29.56in /  1000.9hPa ESE 2.0mph /  3.2km/h 6.0mph /  9.7km/h 47% 0.00in /  0mm 0.0 W/m2
00:12 72.9 °F /  22.7 °C 50.9 °F /  10.5 °C 29.56in /  1000.9hPa SE 4.9mph /  7.9km/h 7.0mph /  11.3km/h 46% 0.00in /  0mm 0.0 W/m2
00:17 72.9 °F /  22.7 °C 50.9 °F /  10.5 °C 29.56in /  1000.9hPa Calm   6.0mph /  9.7km/h 46% 0.00in /  0mm 0.0 W/m2
00:22 72.9 °F /  22.7 °C 50.9 °F /  10.5 °C 29.57in /  1001.2hPa SSE 2.0mph /  3.2km/h 3.0mph /  4.8km/h 46% 0.00in /  0mm 0.0 W/m2
00:27 72.9 °F /  22.7 °C 50.9 °F /  10.5 °C 29.57in /  1001.2hPa Calm   3.0mph /  4.8km/h 46% 0.00in /  0mm 0.0 W/m2
00:32 72.9 °F /  22.7 °C 50.9 °F /  10.5 °C 29.56in /  1000.9hPa SSE 0.9mph /  1.4km/h 4.0mph /  6.4km/h 46% 0.00in /  0mm 0.0 W/m2
00:37 72.9 °F /  22.7 °C 50.9 °F /  10.5 °C 29.56in /  1000.9hPa Calm   1.0mph /  1.6km/h 46% 0.00in /  0mm 0.0 W/m2
00:42 72.7 °F /  22.6 °C 50.7 °F /  10.4 °C 29.56in /  1000.9hPa SW 0.9mph /  1.4km/h 7.0mph /  11.3km/h 46% 0.00in /  0mm 0.0 W/m2
00:47 72.7 °F /  22.6 °C 50.7 °F /  10.4 °C 29.56in /  1000.9hPa Calm   2.0mph /  3.2km/h 46% 0.00in /  0mm 0.0 W/m2
00:52 72.5 °F /  22.5 °C 51.1 °F /  10.6 °C 29.56in /  1000.9hPa Calm   1.0mph /  1.6km/h 47% 0.00in /  0mm 0.0 W/m2
00:58 72.3 °F /  22.4 °C 50.9 °F /  10.5 °C 29.56in /  1000.9hPa Calm   3.0mph /  4.8km/h 47% 0.00in /  0mm 0.0 W/m2
01:03 72.1 °F /  22.3 °C 50.7 °F /  10.4 °C 29.56in /  1000.9hPa SSW 0.9mph /  1.4km/h 4.0mph /  6.4km/h 47% 0.00in /  0mm 0.0 W/m2
01:08 72.1 °F /  22.3 °C 50.2 °F /  10.1 °C 29.55in /  1000.6hPa Calm   5.0mph /  8km/h 46% 0.00in /  0mm 0.0 W/m2
01:13 72.1 °F /  22.3 °C 50.2 °F /  10.1 °C 29.55in /  1000.6hPa Calm   3.0mph /  4.8km/h 46% 0.00in /  0mm 0.0 W/m2
01:18 72.1 °F /  22.3 °C 50.2 °F /  10.1 °C 29.55in /  1000.6hPa SE 2.0mph /  3.2km/h 5.0mph /  8km/h 46% 0.00in /  0mm 0.0 W/m2
01:23 72.3 °F /  22.4 °C 50.4 °F /  10.2 °C 29.55in /  1000.6hPa Calm   4.0mph /  6.4km/h 46% 0.00in /  0mm 0.0 W/m2
01:28 72.3 °F /  22.4 °C 50.4 °F /  10.2 °C 29.55in /  1000.6hPa South 0.9mph /  1.4km/h 5.0mph /  8km/h 46% 0.00in /  0mm 0.0 W/m2
01:33 72.3 °F /  22.4 °C 49.8 °F /  9.9 °C 29.55in /  1000.6hPa SSE 6.0mph /  9.7km/h 9.0mph /  14.5km/h 45% 0.00in /  0mm 0.0 W/m2
01:38 72.7 °F /  22.6 °C 50.2 °F /  10.1 °C 29.55in /  1000.6hPa SE 4.9mph /  7.9km/h 8.0mph /  12.9km/h 45% 0.00in /  0mm 0.0 W/m2
01:44 72.7 °F /  22.6 °C 50.2 °F /  10.1 °C 29.55in /  1000.6hPa South 2.0mph /  3.2km/h 8.0mph /  12.9km/h 45% 0.00in /  0mm 0.0 W/m2
01:49 72.7 °F /  22.6 °C 50.2 °F /  10.1 °C 29.55in /  1000.6hPa SSE 0.9mph /  1.4km/h 6.0mph /  9.7km/h 45% 0.00in /  0mm 0.0 W/m2
01:54 72.7 °F /  22.6 °C 50.2 °F /  10.1 °C 29.55in /  1000.6hPa Calm   4.0mph /  6.4km/h 45% 0.00in /  0mm 0.0 W/m2
01:59 72.7 °F /  22.6 °C 50.2 °F /  10.1 °C 29.55in /  1000.6hPa SSE 2.0mph /  3.2km/h 5.0mph /  8km/h 45% 0.00in /  0mm 0.0 W/m2
02:04 72.7 °F /  22.6 °C 50.2 °F /  10.1 °C 29.54in /  1000.2hPa South 4.9mph /  7.9km/h 7.0mph /  11.3km/h 45% 0.00in /  0mm 0.0 W/m2
02:09 72.7 °F /  22.6 °C 49.5 °F /  9.7 °C 29.54in /  1000.2hPa ESE 4.0mph /  6.4km/h 6.0mph /  9.7km/h 44% 0.00in /  0mm 0.0 W/m2
02:14 72.7 °F /  22.6 °C 50.2 °F /  10.1 °C 29.54in /  1000.2hPa SSE 2.0mph /  3.2km/h 6.0mph /  9.7km/h 45% 0.00in /  0mm 0.0 W/m2
02:19 72.5 °F /  22.5 °C 49.3 °F /  9.6 °C 29.54in /  1000.2hPa SSW 2.9mph /  4.7km/h 6.0mph /  9.7km/h 44% 0.00in /  0mm 0.0 W/m2
02:24 72.3 °F /  22.4 °C 49.8 °F /  9.9 °C 29.54in /  1000.2hPa South 2.0mph /  3.2km/h 6.0mph /  9.7km/h 45% 0.00in /  0mm 0.0 W/m2
02:29 72.3 °F /  22.4 °C 49.8 °F /  9.9 °C 29.54in /  1000.2hPa Calm   2.0mph /  3.2km/h 45% 0.00in /  0mm 0.0 W/m2
02:34 72.1 °F /  22.3 °C 49.6 °F /  9.8 °C 29.54in /  1000.2hPa Calm   2.0mph /  3.2km/h 45% 0.00in /  0mm 0.0 W/m2
02:40 72.0 °F /  22.2 °C 49.5 °F /  9.7 °C 29.54in /  1000.2hPa ESE 0.9mph /  1.4km/h 2.0mph /  3.2km/h 45% 0.00in /  0mm 0.0 W/m2
02:45 72.0 °F /  22.2 °C 49.5 °F /  9.7 °C 29.54in /  1000.2hPa SE 2.9mph /  4.7km/h 5.0mph /  8km/h 45% 0.00in /  0mm 0.0 W/m2
02:50 71.8 °F /  22.1 °C 49.8 °F /  9.9 °C 29.54in /  1000.2hPa Calm   4.0mph /  6.4km/h 46% 0.00in /  0mm 0.0 W/m2
02:55 71.4 °F /  21.9 °C 49.6 °F /  9.8 °C 29.54in /  1000.2hPa SSE 2.9mph /  4.7km/h 4.0mph /  6.4km/h 46% 0.00in /  0mm 0.0 W/m2
03:00 71.4 °F /  21.9 °C 49.6 °F /  9.8 °C 29.53in /  999.9hPa SE 4.0mph /  6.4km/h 6.0mph /  9.7km/h 46% 0.00in /  0mm 0.0 W/m2
03:05 71.4 °F /  21.9 °C 49.6 °F /  9.8 °C 29.53in /  999.9hPa SE 6.0mph /  9.7km/h 8.0mph /  12.9km/h 46% 0.00in /  0mm 0.0 W/m2
03:10 71.4 °F /  21.9 °C 49.6 °F /  9.8 °C 29.53in /  999.9hPa SE 0.9mph /  1.4km/h 2.0mph /  3.2km/h 46% 0.00in /  0mm 0.0 W/m2
03:15 71.4 °F /  21.9 °C 49.6 °F /  9.8 °C 29.53in /  999.9hPa SE 2.0mph /  3.2km/h 2.0mph /  3.2km/h 46% 0.00in /  0mm 0.0 W/m2
03:21 71.2 °F /  21.8 °C 49.5 °F /  9.7 °C 29.53in /  999.9hPa Calm   1.0mph /  1.6km/h 46% 0.00in /  0mm 0.0 W/m2
03:26 71.1 °F /  21.7 °C 49.3 °F /  9.6 °C 29.54in /  1000.2hPa NE 2.9mph /  4.7km/h 5.0mph /  8km/h 46% 0.00in /  0mm 0.0 W/m2
03:31 70.9 °F /  21.6 °C 49.6 °F /  9.8 °C 29.53in /  999.9hPa Calm   2.0mph /  3.2km/h 47% 0.00in /  0mm 0.0 W/m2
03:36 70.7 °F /  21.5 °C 49.5 °F /  9.7 °C 29.53in /  999.9hPa Calm   1.0mph /  1.6km/h 47% 0.00in /  0mm 0.0 W/m2
03:41 70.5 °F /  21.4 °C 49.3 °F /  9.6 °C 29.53in /  999.9hPa Calm   2.0mph /  3.2km/h 47% 0.00in /  0mm 0.0 W/m2
03:46 70.3 °F /  21.3 °C 49.6 °F /  9.8 °C 29.53in /  999.9hPa Calm   1.0mph /  1.6km/h 48% 0.00in /  0mm 0.0 W/m2
03:51 70.2 °F /  21.2 °C 50.2 °F /  10.1 °C 29.54in /  1000.2hPa Calm   2.0mph /  3.2km/h 49% 0.00in /  0mm 0.0 W/m2
03:56 69.6 °F /  20.9 °C 49.6 °F /  9.8 °C 29.54in /  1000.2hPa Calm   2.0mph /  3.2km/h 49% 0.00in /  0mm 0.0 W/m2
04:01 69.4 °F /  20.8 °C 50.0 °F /  10 °C 29.54in /  1000.2hPa Calm     50% 0.00in /  0mm 0.0 W/m2
04:06 69.3 °F /  20.7 °C 50.4 °F /  10.2 °C 29.53in /  999.9hPa NE 2.0mph /  3.2km/h 3.0mph /  4.8km/h 51% 0.00in /  0mm 0.0 W/m2
04:12 69.1 °F /  20.6 °C 50.2 °F /  10.1 °C 29.53in /  999.9hPa Calm   1.0mph /  1.6km/h 51% 0.00in /  0mm 0.0 W/m2
04:17 68.7 °F /  20.4 °C 50.4 °F /  10.2 °C 29.54in /  1000.2hPa NE 0.9mph /  1.4km/h 1.0mph /  1.6km/h 52% 0.00in /  0mm 0.0 W/m2
04:22 68.5 °F /  20.3 °C 50.7 °F /  10.4 °C 29.53in /  999.9hPa Calm   1.0mph /  1.6km/h 53% 0.00in /  0mm 0.0 W/m2
04:27 68.4 °F /  20.2 °C 51.1 °F /  10.6 °C 29.53in /  999.9hPa Calm   3.0mph /  4.8km/h 54% 0.00in /  0mm 0.0 W/m2
04:32 68.2 °F /  20.1 °C 51.4 °F /  10.8 °C 29.53in /  999.9hPa Calm   3.0mph /  4.8km/h 55% 0.00in /  0mm 0.0 W/m2
04:37 67.8 °F /  19.9 °C 51.6 °F /  10.9 °C 29.53in /  999.9hPa Calm   2.0mph /  3.2km/h 56% 0.00in /  0mm 0.0 W/m2
04:42 67.6 °F /  19.8 °C 51.4 °F /  10.8 °C 29.53in /  999.9hPa ENE 0.9mph /  1.4km/h 3.0mph /  4.8km/h 56% 0.00in /  0mm 0.0 W/m2
04:47 67.5 °F /  19.7 °C 51.6 °F /  10.9 °C 29.54in /  1000.2hPa Calm   2.0mph /  3.2km/h 57% 0.00in /  0mm 0.0 W/m2
04:52 67.3 °F /  19.6 °C 52.0 °F /  11.1 °C 29.53in /  999.9hPa ENE 2.0mph /  3.2km/h 3.0mph /  4.8km/h 58% 0.00in /  0mm 0.0 W/m2
04:57 67.1 °F /  19.5 °C 51.8 °F /  11 °C 29.53in /  999.9hPa ENE 0.9mph /  1.4km/h 1.0mph /  1.6km/h 58% 0.00in /  0mm 0.0 W/m2
05:03 66.9 °F /  19.4 °C 52.2 °F /  11.2 °C 29.53in /  999.9hPa Calm   1.0mph /  1.6km/h 59% 0.00in /  0mm 0.0 W/m2
05:08 66.6 °F /  19.2 °C 52.2 °F /  11.2 °C 29.53in /  999.9hPa Calm   1.0mph /  1.6km/h 60% 0.00in /  0mm 0.0 W/m2
05:13 66.4 °F /  19.1 °C 52.2 °F /  11.2 °C 29.53in /  999.9hPa Calm   4.0mph /  6.4km/h 60% 0.00in /  0mm 0.0 W/m2
05:18 66.0 °F /  18.9 °C 51.8 °F /  11 °C 29.53in /  999.9hPa Calm   3.0mph /  4.8km/h 60% 0.00in /  0mm 0.0 W/m2
05:23 66.0 °F /  18.9 °C 51.8 °F /  11 °C 29.53in /  999.9hPa Calm     60% 0.00in /  0mm 0.0 W/m2
05:28 65.8 °F /  18.8 °C 52.0 °F /  11.1 °C 29.53in /  999.9hPa Calm   1.0mph /  1.6km/h 61% 0.00in /  0mm 0.0 W/m2
05:33 65.7 °F /  18.7 °C 51.8 °F /  11 °C 29.53in /  999.9hPa Calm   2.0mph /  3.2km/h 61% 0.00in /  0mm 0.0 W/m2
05:38 65.7 °F /  18.7 °C 51.8 °F /  11 °C 29.52in /  999.5hPa Calm   1.0mph /  1.6km/h 61% 0.00in /  0mm 0.0 W/m2
05:43 65.5 °F /  18.6 °C 52.2 °F /  11.2 °C 29.52in /  999.5hPa Calm   1.0mph /  1.6km/h 62% 0.00in /  0mm 0.0 W/m2
05:49 65.5 °F /  18.6 °C 52.2 °F /  11.2 °C 29.52in /  999.5hPa Calm   1.0mph /  1.6km/h 62% 0.00in /  0mm 0.0 W/m2
05:54 65.1 °F /  18.4 °C 52.2 °F /  11.2 °C 29.52in /  999.5hPa Calm   1.0mph /  1.6km/h 63% 0.00in /  0mm 0.0 W/m2
05:59 65.1 °F /  18.4 °C 52.7 °F /  11.5 °C 29.52in /  999.5hPa Calm     64% 0.00in /  0mm 0.0 W/m2
06:04 64.9 °F /  18.3 °C 52.5 °F /  11.4 °C 29.52in /  999.5hPa Calm   2.0mph /  3.2km/h 64% 0.00in /  0mm 0.0 W/m2
06:09 64.8 °F /  18.2 °C 52.7 °F /  11.5 °C 29.53in /  999.9hPa Calm     65% 0.00in /  0mm 0.0 W/m2
06:14 64.8 °F /  18.2 °C 52.7 °F /  11.5 °C 29.53in /  999.9hPa Calm     65% 0.00in /  0mm 0.0 W/m2
06:19 64.8 °F /  18.2 °C 53.1 °F /  11.7 °C 29.53in /  999.9hPa Calm     66% 0.00in /  0mm 0.0 W/m2
06:24 64.6 °F /  18.1 °C 52.9 °F /  11.6 °C 29.53in /  999.9hPa Calm     66% 0.00in /  0mm 0.0 W/m2
06:29 64.6 °F /  18.1 °C 52.9 °F /  11.6 °C 29.54in /  1000.2hPa Calm     66% 0.00in /  0mm 0.0 W/m2
06:35 64.4 °F /  18 °C 52.9 °F /  11.6 °C 29.53in /  999.9hPa Calm   2.0mph /  3.2km/h 66% 0.00in /  0mm 0.0 W/m2
06:40 64.4 °F /  18 °C 53.2 °F /  11.8 °C 29.54in /  1000.2hPa ENE 0.9mph /  1.4km/h 3.0mph /  4.8km/h 67% 0.00in /  0mm 0.0 W/m2
06:45 64.4 °F /  18 °C 53.6 °F /  12 °C 29.54in /  1000.2hPa Calm   1.0mph /  1.6km/h 68% 0.00in /  0mm 0.0 W/m2
06:50 64.4 °F /  18 °C 53.6 °F /  12 °C 29.54in /  1000.2hPa Calm   3.0mph /  4.8km/h 68% 0.00in /  0mm 5.0 W/m2
06:55 64.2 °F /  17.9 °C 53.8 °F /  12.1 °C 29.54in /  1000.2hPa ENE 0.9mph /  1.4km/h 2.0mph /  3.2km/h 69% 0.00in /  0mm 9.0 W/m2
07:00 64.2 °F /  17.9 °C 53.8 °F /  12.1 °C 29.54in /  1000.2hPa Calm   1.0mph /  1.6km/h 69% 0.00in /  0mm 11.0 W/m2
07:05 64.2 °F /  17.9 °C 53.8 °F /  12.1 °C 29.54in /  1000.2hPa Calm   1.0mph /  1.6km/h 69% 0.00in /  0mm 14.0 W/m2
07:10 64.2 °F /  17.9 °C 54.3 °F /  12.4 °C 29.54in /  1000.2hPa Calm   1.0mph /  1.6km/h 70% 0.00in /  0mm 16.0 W/m2
07:15 64.2 °F /  17.9 °C 54.3 °F /  12.4 °C 29.55in /  1000.6hPa Calm     70% 0.00in /  0mm 18.0 W/m2
07:21 64.2 °F /  17.9 °C 54.7 °F /  12.6 °C 29.56in /  1000.9hPa Calm     71% 0.00in /  0mm 19.0 W/m2
07:26 64.2 °F /  17.9 °C 54.7 °F /  12.6 °C 29.56in /  1000.9hPa Calm   1.0mph /  1.6km/h 71% 0.00in /  0mm 21.0 W/m2
07:31 64.6 °F /  18.1 °C 55.4 °F /  13 °C 29.56in /  1000.9hPa ENE 0.9mph /  1.4km/h 1.0mph /  1.6km/h 72% 0.00in /  0mm 23.0 W/m2
07:36 64.8 °F /  18.2 °C 55.6 °F /  13.1 °C 29.56in /  1000.9hPa Calm   3.0mph /  4.8km/h 72% 0.00in /  0mm 25.0 W/m2
07:41 64.9 °F /  18.3 °C 55.8 °F /  13.2 °C 29.56in /  1000.9hPa Calm   2.0mph /  3.2km/h 72% 0.00in /  0mm 26.0 W/m2
07:46 65.3 °F /  18.5 °C 56.5 °F /  13.6 °C 29.55in /  1000.6hPa Calm   1.0mph /  1.6km/h 73% 0.00in /  0mm 28.0 W/m2
07:51 65.7 °F /  18.7 °C 56.8 °F /  13.8 °C 29.55in /  1000.6hPa Calm   2.0mph /  3.2km/h 73% 0.00in /  0mm 32.0 W/m2
07:56 66.0 °F /  18.9 °C 57.2 °F /  14 °C 29.55in /  1000.6hPa East 0.9mph /  1.4km/h 2.0mph /  3.2km/h 73% 0.00in /  0mm 32.0 W/m2
08:01 66.6 °F /  19.2 °C 57.2 °F /  14 °C 29.55in /  1000.6hPa Calm   1.0mph /  1.6km/h 72% 0.00in /  0mm 33.0 W/m2
08:06 66.9 °F /  19.4 °C 57.6 °F /  14.2 °C 29.55in /  1000.6hPa Calm     72% 0.00in /  0mm 33.0 W/m2
08:12 67.5 °F /  19.7 °C 57.7 °F /  14.3 °C 29.55in /  1000.6hPa Calm     71% 0.00in /  0mm 35.0 W/m2
08:17 68.0 °F /  20 °C 58.3 °F /  14.6 °C 29.55in /  1000.6hPa Calm   2.0mph /  3.2km/h 71% 0.00in /  0mm 37.0 W/m2
08:22 68.5 °F /  20.3 °C 58.3 °F /  14.6 °C 29.55in /  1000.6hPa ENE 0.9mph /  1.4km/h 4.0mph /  6.4km/h 70% 0.00in /  0mm 39.0 W/m2
08:27 69.1 °F /  20.6 °C 58.5 °F /  14.7 °C 29.55in /  1000.6hPa ENE 2.0mph /  3.2km/h 2.0mph /  3.2km/h 69% 0.00in /  0mm 39.0 W/m2
08:32 69.4 °F /  20.8 °C 58.5 °F /  14.7 °C 29.55in /  1000.6hPa Calm   1.0mph /  1.6km/h 68% 0.00in /  0mm 40.0 W/m2
08:37 70.0 °F /  21.1 °C 58.5 °F /  14.7 °C 29.55in /  1000.6hPa NNE 0.9mph /  1.4km/h 3.0mph /  4.8km/h 67% 0.00in /  0mm 40.0 W/m2
08:42 70.5 °F /  21.4 °C 58.6 °F /  14.8 °C 29.55in /  1000.6hPa Calm   1.0mph /  1.6km/h 66% 0.00in /  0mm 42.0 W/m2
08:47 71.1 °F /  21.7 °C 58.6 °F /  14.8 °C 29.55in /  1000.6hPa Calm   2.0mph /  3.2km/h 65% 0.00in /  0mm 46.0 W/m2
08:53 71.4 °F /  21.9 °C 58.6 °F /  14.8 °C 29.55in /  1000.6hPa North 0.9mph /  1.4km/h 3.0mph /  4.8km/h 64% 0.00in /  0mm 58.0 W/m2
08:58 71.8 °F /  22.1 °C 58.1 °F /  14.5 °C 29.55in /  1000.6hPa North 0.9mph /  1.4km/h 4.0mph /  6.4km/h 62% 0.00in /  0mm 478.0 W/m2
09:03 72.1 °F /  22.3 °C 58.5 °F /  14.7 °C 29.55in /  1000.6hPa North 0.9mph /  1.4km/h 2.0mph /  3.2km/h 62% 0.00in /  0mm 501.0 W/m2
09:09 72.7 °F /  22.6 °C 58.5 °F /  14.7 °C 29.55in /  1000.6hPa Calm   1.0mph /  1.6km/h 61% 0.00in /  0mm 520.0 W/m2
09:14 73.4 °F /  23 °C 58.6 °F /  14.8 °C 29.55in /  1000.6hPa West 0.9mph /  1.4km/h 1.0mph /  1.6km/h 60% 0.00in /  0mm 540.0 W/m2
09:19 73.9 °F /  23.3 °C 58.6 °F /  14.8 °C 29.55in /  1000.6hPa Calm   5.0mph /  8km/h 59% 0.00in /  0mm 561.0 W/m2
09:24 74.8 °F /  23.8 °C 59.0 °F /  15 °C 29.55in /  1000.6hPa Calm   4.0mph /  6.4km/h 58% 0.00in /  0mm 578.0 W/m2
09:29 75.6 °F /  24.2 °C 58.8 °F /  14.9 °C 29.55in /  1000.6hPa WSW 2.0mph /  3.2km/h 2.0mph /  3.2km/h 56% 0.00in /  0mm 596.0 W/m2
09:34 76.3 °F /  24.6 °C 59.0 °F /  15 °C 29.55in /  1000.6hPa Calm   2.0mph /  3.2km/h 55% 0.00in /  0mm 612.0 W/m2
09:39 76.5 °F /  24.7 °C 58.6 °F /  14.8 °C 29.55in /  1000.6hPa WSW 0.9mph /  1.4km/h 4.0mph /  6.4km/h 54% 0.00in /  0mm 631.0 W/m2
09:44 76.6 °F /  24.8 °C 58.8 °F /  14.9 °C 29.55in /  1000.6hPa Calm   2.0mph /  3.2km/h 54% 0.00in /  0mm 643.0 W/m2
09:49 77.2 °F /  25.1 °C 58.6 °F /  14.8 °C 29.55in /  1000.6hPa WNW 2.9mph /  4.7km/h 5.0mph /  8km/h 53% 0.00in /  0mm 659.0 W/m2
09:54 77.5 °F /  25.3 °C 58.5 °F /  14.7 °C 29.55in /  1000.6hPa NNW 2.9mph /  4.7km/h 5.0mph /  8km/h 52% 0.00in /  0mm 675.0 W/m2
09:59 78.1 °F /  25.6 °C 58.5 °F /  14.7 °C 29.55in /  1000.6hPa WSW 2.0mph /  3.2km/h 5.0mph /  8km/h 51% 0.00in /  0mm 691.0 W/m2
10:04 77.9 °F /  25.5 °C 57.7 °F /  14.3 °C 29.55in /  1000.6hPa Calm   4.0mph /  6.4km/h 50% 0.00in /  0mm 712.0 W/m2
10:10 78.3 °F /  25.7 °C 57.6 °F /  14.2 °C 29.55in /  1000.6hPa Calm   2.0mph /  3.2km/h 49% 0.00in /  0mm 731.0 W/m2
10:16 78.8 °F /  26 °C 58.1 °F /  14.5 °C 29.55in /  1000.6hPa NNW 2.9mph /  4.7km/h 4.0mph /  6.4km/h 49% 0.00in /  0mm 747.0 W/m2
10:21 79.5 °F /  26.4 °C 58.1 °F /  14.5 °C 29.55in /  1000.6hPa NW 0.9mph /  1.4km/h 4.0mph /  6.4km/h 48% 0.00in /  0mm 763.0 W/m2
10:26 80.2 °F /  26.8 °C 58.1 °F /  14.5 °C 29.55in /  1000.6hPa Calm   2.0mph /  3.2km/h 47% 0.00in /  0mm 777.0 W/m2
10:31 80.8 °F /  27.1 °C 58.1 °F /  14.5 °C 29.55in /  1000.6hPa Calm   4.0mph /  6.4km/h 46% 0.00in /  0mm 791.0 W/m2
10:36 81.0 °F /  27.2 °C 57.6 °F /  14.2 °C 29.54in /  1000.2hPa North 0.9mph /  1.4km/h 4.0mph /  6.4km/h 45% 0.00in /  0mm 814.0 W/m2
10:42 81.5 °F /  27.5 °C 57.6 °F /  14.2 °C 29.54in /  1000.2hPa Calm   2.0mph /  3.2km/h 44% 0.00in /  0mm 830.0 W/m2
10:47 81.9 °F /  27.7 °C 57.7 °F /  14.3 °C 29.54in /  1000.2hPa North 0.9mph /  1.4km/h 4.0mph /  6.4km/h 44% 0.00in /  0mm 853.0 W/m2
10:52 82.2 °F /  27.9 °C 57.6 °F /  14.2 °C 29.54in /  1000.2hPa Calm   2.0mph /  3.2km/h 43% 0.00in /  0mm 863.0 W/m2
10:57 82.4 °F /  28 °C 57.7 °F /  14.3 °C 29.54in /  1000.2hPa WSW 0.9mph /  1.4km/h 5.0mph /  8km/h 43% 0.00in /  0mm 872.0 W/m2
11:02 82.8 °F /  28.2 °C 56.7 °F /  13.7 °C 29.54in /  1000.2hPa Calm   3.0mph /  4.8km/h 41% 0.00in /  0mm 888.0 W/m2
11:08 82.9 °F /  28.3 °C 57.6 °F /  14.2 °C 29.53in /  999.9hPa Calm   1.0mph /  1.6km/h 42% 0.00in /  0mm 905.0 W/m2
11:13 83.5 °F /  28.6 °C 57.4 °F /  14.1 °C 29.53in /  999.9hPa WSW 2.9mph /  4.7km/h 6.0mph /  9.7km/h 41% 0.00in /  0mm 942.0 W/m2
11:18 83.7 °F /  28.7 °C 56.8 °F /  13.8 °C 29.53in /  999.9hPa SSW 4.0mph /  6.4km/h 5.0mph /  8km/h 40% 0.00in /  0mm 932.0 W/m2
11:24 83.8 °F /  28.8 °C 57.0 °F /  13.9 °C 29.53in /  999.9hPa Calm   7.0mph /  11.3km/h 40% 0.00in /  0mm 962.0 W/m2
11:30 84.0 °F /  28.9 °C 55.8 °F /  13.2 °C 29.52in /  999.5hPa WNW 0.9mph /  1.4km/h 7.0mph /  11.3km/h 38% 0.00in /  0mm 972.0 W/m2
11:35 84.4 °F /  29.1 °C 55.2 °F /  12.9 °C 29.52in /  999.5hPa WSW 0.9mph /  1.4km/h 5.0mph /  8km/h 37% 0.00in /  0mm 972.0 W/m2
11:40 84.4 °F /  29.1 °C 55.2 °F /  12.9 °C 29.52in /  999.5hPa South 0.9mph /  1.4km/h 8.0mph /  12.9km/h 37% 0.00in /  0mm 1009.0 W/m2
11:45 83.8 °F /  28.8 °C 54.9 °F /  12.7 °C 29.52in /  999.5hPa WSW 2.0mph /  3.2km/h 4.0mph /  6.4km/h 37% 0.00in /  0mm 185.0 W/m2
11:50 83.7 °F /  28.7 °C 55.4 °F /  13 °C 29.52in /  999.5hPa Calm   7.0mph /  11.3km/h 38% 0.00in /  0mm 345.0 W/m2
11:56 84.4 °F /  29.1 °C 55.9 °F /  13.3 °C 29.52in /  999.5hPa ENE 0.9mph /  1.4km/h 6.0mph /  9.7km/h 38% 0.00in /  0mm 946.0 W/m2
12:01 84.9 °F /  29.4 °C 55.8 °F /  13.2 °C 29.52in /  999.5hPa NNE 0.9mph /  1.4km/h 4.0mph /  6.4km/h 37% 0.00in /  0mm 230.0 W/m2
12:06 85.6 °F /  29.8 °C 55.6 °F /  13.1 °C 29.52in /  999.5hPa Calm   7.0mph /  11.3km/h 36% 0.00in /  0mm 1106.0 W/m2
12:11 86.4 °F /  30.2 °C 53.8 °F /  12.1 °C 29.51in /  999.2hPa NNE 2.9mph /  4.7km/h 7.0mph /  11.3km/h 33% 0.00in /  0mm 1150.0 W/m2
12:16 86.7 °F /  30.4 °C 54.1 °F /  12.3 °C 29.51in /  999.2hPa NW 4.0mph /  6.4km/h 7.0mph /  11.3km/h 33% 0.00in /  0mm 1165.0 W/m2
12:22 87.3 °F /  30.7 °C 53.8 °F /  12.1 °C 29.51in /  999.2hPa NNE 0.9mph /  1.4km/h 4.0mph /  6.4km/h 32% 0.00in /  0mm 207.0 W/m2
12:27 87.3 °F /  30.7 °C 53.8 °F /  12.1 °C 29.51in /  999.2hPa SE 2.0mph /  3.2km/h 2.0mph /  3.2km/h 32% 0.00in /  0mm 162.0 W/m2
12:32 86.9 °F /  30.5 °C 53.4 °F /  11.9 °C 29.51in /  999.2hPa SSW 6.0mph /  9.7km/h 6.0mph /  9.7km/h 32% 0.00in /  0mm 221.0 W/m2
12:38 86.4 °F /  30.2 °C 53.1 °F /  11.7 °C 29.51in /  999.2hPa NW 2.9mph /  4.7km/h 6.0mph /  9.7km/h 32% 0.00in /  0mm 320.0 W/m2
12:43 86.2 °F /  30.1 °C 52.9 °F /  11.6 °C 29.51in /  999.2hPa North 4.9mph /  7.9km/h 5.0mph /  8km/h 32% 0.00in /  0mm 188.0 W/m2
12:48 85.8 °F /  29.9 °C 52.5 °F /  11.4 °C 29.51in /  999.2hPa ESE 2.0mph /  3.2km/h 2.0mph /  3.2km/h 32% 0.00in /  0mm 213.0 W/m2
12:54 85.6 °F /  29.8 °C 52.3 °F /  11.3 °C 29.50in /  998.9hPa East 2.0mph /  3.2km/h 3.0mph /  4.8km/h 32% 0.00in /  0mm 1227.0 W/m2
12:59 86.2 °F /  30.1 °C 52.0 °F /  11.1 °C 29.50in /  998.9hPa ESE 2.0mph /  3.2km/h 6.0mph /  9.7km/h 31% 0.00in /  0mm 1171.0 W/m2
13:04 86.9 °F /  30.5 °C 51.8 °F /  11 °C 29.50in /  998.9hPa SE 2.9mph /  4.7km/h 3.0mph /  4.8km/h 30% 0.00in /  0mm 429.0 W/m2
13:09 87.6 °F /  30.9 °C 49.5 °F /  9.7 °C 29.50in /  998.9hPa Calm   3.0mph /  4.8km/h 27% 0.00in /  0mm 1236.0 W/m2
13:14 88.2 °F /  31.2 °C 50.0 °F /  10 °C 29.50in /  998.9hPa SE 2.9mph /  4.7km/h 3.0mph /  4.8km/h 27% 0.00in /  0mm 1215.0 W/m2
13:19 88.5 °F /  31.4 °C 50.4 °F /  10.2 °C 29.50in /  998.9hPa NW 6.0mph /  9.7km/h 6.0mph /  9.7km/h 27% 0.00in /  0mm 1239.0 W/m2
13:24 89.8 °F /  32.1 °C 50.4 °F /  10.2 °C 29.50in /  998.9hPa Calm   7.0mph /  11.3km/h 26% 0.00in /  0mm 1236.0 W/m2
13:29 90.3 °F /  32.4 °C 49.6 °F /  9.8 °C 29.49in /  998.5hPa NNE 8.9mph /  14.3km/h 13.0mph /  20.9km/h 25% 0.00in /  0mm 334.0 W/m2
13:34 90.3 °F /  32.4 °C 48.6 °F /  9.2 °C 29.49in /  998.5hPa NE 4.0mph /  6.4km/h 7.0mph /  11.3km/h 24% 0.00in /  0mm 1139.0 W/m2
13:40 90.9 °F /  32.7 °C 49.1 °F /  9.5 °C 29.49in /  998.5hPa NNE 4.9mph /  7.9km/h 6.0mph /  9.7km/h 24% 0.00in /  0mm 1192.0 W/m2
13:45 91.2 °F /  32.9 °C 48.2 °F /  9 °C 29.49in /  998.5hPa North 0.9mph /  1.4km/h 9.0mph /  14.5km/h 23% 0.00in /  0mm 1223.0 W/m2
13:51 91.6 °F /  33.1 °C 48.6 °F /  9.2 °C 29.49in /  998.5hPa ENE 2.0mph /  3.2km/h 4.0mph /  6.4km/h 23% 0.00in /  0mm 418.0 W/m2
13:56 91.0 °F /  32.8 °C 48.0 °F /  8.9 °C 29.48in /  998.2hPa ENE 2.9mph /  4.7km/h 7.0mph /  11.3km/h 23% 0.00in /  0mm 301.0 W/m2
14:01 90.5 °F /  32.5 °C 48.7 °F /  9.3 °C 29.48in /  998.2hPa ENE 2.0mph /  3.2km/h 7.0mph /  11.3km/h 24% 0.00in /  0mm 202.0 W/m2
14:07 90.0 °F /  32.2 °C 47.1 °F /  8.4 °C 29.48in /  998.2hPa ESE 6.0mph /  9.7km/h 7.0mph /  11.3km/h 23% 0.00in /  0mm 223.0 W/m2
14:12 89.4 °F /  31.9 °C 46.8 °F /  8.2 °C 29.47in /  997.9hPa SE 0.9mph /  1.4km/h 1.0mph /  1.6km/h 23% 0.00in /  0mm 213.0 W/m2
14:18 88.9 °F /  31.6 °C 46.2 °F /  7.9 °C 29.47in /  997.9hPa East 2.0mph /  3.2km/h 3.0mph /  4.8km/h 23% 0.00in /  0mm 216.0 W/m2
14:23 88.5 °F /  31.4 °C 46.0 °F /  7.8 °C 29.48in /  998.2hPa West 0.9mph /  1.4km/h 2.0mph /  3.2km/h 23% 0.00in /  0mm 190.0 W/m2
14:29 88.3 °F /  31.3 °C 45.9 °F /  7.7 °C 29.47in /  997.9hPa SE 2.0mph /  3.2km/h 4.0mph /  6.4km/h 23% 0.00in /  0mm 225.0 W/m2
14:34 88.2 °F /  31.2 °C 44.6 °F /  7 °C 29.47in /  997.9hPa WSW 2.9mph /  4.7km/h 6.0mph /  9.7km/h 22% 0.00in /  0mm 237.0 W/m2
14:39 87.4 °F /  30.8 °C 45.1 °F /  7.3 °C 29.47in /  997.9hPa Calm   2.0mph /  3.2km/h 23% 0.00in /  0mm 260.0 W/m2
14:44 87.4 °F /  30.8 °C 49.3 °F /  9.6 °C 29.47in /  997.9hPa WNW 4.0mph /  6.4km/h 6.0mph /  9.7km/h 27% 0.00in /  0mm 276.0 W/m2
14:49 87.4 °F /  30.8 °C 51.3 °F /  10.7 °C 29.47in /  997.9hPa NNE 4.0mph /  6.4km/h 5.0mph /  8km/h 29% 0.00in /  0mm 420.0 W/m2
14:54 87.3 °F /  30.7 °C 50.2 °F /  10.1 °C 29.47in /  997.9hPa West 0.9mph /  1.4km/h 5.0mph /  8km/h 28% 0.00in /  0mm 269.0 W/m2
15:00 87.3 °F /  30.7 °C 51.1 °F /  10.6 °C 29.47in /  997.9hPa West 4.0mph /  6.4km/h 4.0mph /  6.4km/h 29% 0.00in /  0mm 158.0 W/m2
15:05 86.7 °F /  30.4 °C 49.6 °F /  9.8 °C 29.47in /  997.9hPa Calm   3.0mph /  4.8km/h 28% 0.00in /  0mm 135.0 W/m2
15:11 86.4 °F /  30.2 °C 51.3 °F /  10.7 °C 29.47in /  997.9hPa Calm   8.0mph /  12.9km/h 30% 0.00in /  0mm 67.0 W/m2
15:16 85.6 °F /  29.8 °C 53.2 °F /  11.8 °C 29.48in /  998.2hPa North 2.0mph /  3.2km/h 5.0mph /  8km/h 33% 0.00in /  0mm 56.0 W/m2
15:21 84.6 °F /  29.2 °C 52.3 °F /  11.3 °C 29.49in /  998.5hPa NW 4.0mph /  6.4km/h 7.0mph /  11.3km/h 33% 0.00in /  0mm 51.0 W/m2
15:26 83.5 °F /  28.6 °C 52.2 °F /  11.2 °C 29.49in /  998.5hPa WNW 0.9mph /  1.4km/h 13.0mph /  20.9km/h 34% 0.00in /  0mm 56.0 W/m2
15:31 82.4 °F /  28 °C 52.7 °F /  11.5 °C 29.49in /  998.5hPa Calm   4.0mph /  6.4km/h 36% 0.00in /  0mm 72.0 W/m2
15:36 81.9 °F /  27.7 °C 53.8 °F /  12.1 °C 29.49in /  998.5hPa NNW 6.0mph /  9.7km/h 14.0mph /  22.5km/h 38% 0.00in /  0mm 93.0 W/m2
15:41 81.1 °F /  27.3 °C 55.2 °F /  12.9 °C 29.49in /  998.5hPa North 6.0mph /  9.7km/h 10.0mph /  16.1km/h 41% 0.00in /  0mm 123.0 W/m2
15:46 80.2 °F /  26.8 °C 55.0 °F /  12.8 °C 29.48in /  998.2hPa NNW 8.1mph /  13km/h 11.0mph /  17.7km/h 42% 0.00in /  0mm 149.0 W/m2
15:52 79.5 °F /  26.4 °C 55.8 °F /  13.2 °C 29.49in /  998.5hPa NW 4.9mph /  7.9km/h 9.0mph /  14.5km/h 44% 0.00in /  0mm 181.0 W/m2
15:57 79.2 °F /  26.2 °C 55.9 °F /  13.3 °C 29.49in /  998.5hPa NW 4.9mph /  7.9km/h 8.0mph /  12.9km/h 45% 0.00in /  0mm 323.0 W/m2
16:02 79.2 °F /  26.2 °C 56.7 °F /  13.7 °C 29.49in /  998.5hPa North 2.0mph /  3.2km/h 5.0mph /  8km/h 46% 0.00in /  0mm 209.0 W/m2
16:07 78.8 °F /  26 °C 56.3 °F /  13.5 °C 29.49in /  998.5hPa NNW 4.0mph /  6.4km/h 9.0mph /  14.5km/h 46% 0.00in /  0mm 179.0 W/m2
16:12 78.4 °F /  25.8 °C 56.5 °F /  13.6 °C 29.49in /  998.5hPa WSW 2.0mph /  3.2km/h 3.0mph /  4.8km/h 47% 0.00in /  0mm 200.0 W/m2
16:17 78.3 °F /  25.7 °C 56.3 °F /  13.5 °C 29.50in /  998.9hPa WNW 4.0mph /  6.4km/h 6.0mph /  9.7km/h 47% 0.00in /  0mm 190.0 W/m2
16:22 78.1 °F /  25.6 °C 56.8 °F /  13.8 °C 29.51in /  999.2hPa Calm   1.0mph /  1.6km/h 48% 0.00in /  0mm 174.0 W/m2
16:27 78.1 °F /  25.6 °C 55.6 °F /  13.1 °C 29.50in /  998.9hPa WSW 4.9mph /  7.9km/h 5.0mph /  8km/h 46% 0.00in /  0mm 149.0 W/m2
16:32 78.1 °F /  25.6 °C 54.3 °F /  12.4 °C 29.50in /  998.9hPa Calm   5.0mph /  8km/h 44% 0.00in /  0mm 130.0 W/m2
16:38 78.1 °F /  25.6 °C 53.1 °F /  11.7 °C 29.50in /  998.9hPa WNW 0.9mph /  1.4km/h 4.0mph /  6.4km/h 42% 0.00in /  0mm 120.0 W/m2
16:43 78.1 °F /  25.6 °C 53.1 °F /  11.7 °C 29.50in /  998.9hPa Calm   4.0mph /  6.4km/h 42% 0.00in /  0mm 118.0 W/m2
16:48 77.9 °F /  25.5 °C 52.9 °F /  11.6 °C 29.50in /  998.9hPa Calm   3.0mph /  4.8km/h 42% 0.00in /  0mm 120.0 W/m2
16:53 77.7 °F /  25.4 °C 53.4 °F /  11.9 °C 29.50in /  998.9hPa Calm   3.0mph /  4.8km/h 43% 0.00in /  0mm 135.0 W/m2
16:58 77.7 °F /  25.4 °C 53.4 °F /  11.9 °C 29.50in /  998.9hPa West 0.9mph /  1.4km/h 4.0mph /  6.4km/h 43% 0.00in /  0mm 148.0 W/m2
17:03 77.7 °F /  25.4 °C 53.4 °F /  11.9 °C 29.50in /  998.9hPa NNW 4.0mph /  6.4km/h 4.0mph /  6.4km/h 43% 0.00in /  0mm 165.0 W/m2
17:08 77.7 °F /  25.4 °C 52.9 °F /  11.6 °C 29.50in /  998.9hPa Calm   3.0mph /  4.8km/h 42% 0.00in /  0mm 185.0 W/m2
17:13 77.7 °F /  25.4 °C 53.4 °F /  11.9 °C 29.50in /  998.9hPa North 2.0mph /  3.2km/h 3.0mph /  4.8km/h 43% 0.00in /  0mm 366.0 W/m2
Olympia, Windhoek, Namibia
Compliments of Weather Underground - 3 mb